sensor_id;sensor_type;location;lat;lon;timestamp;P1;durP1;ratioP1;P2;durP2;ratioP2
57231;SDS011;43488;46.934;8.276;2022-09-17T00:01:29;580.35;;;393.60;;
57231;SDS011;43488;46.934;8.276;2022-09-17T00:03:58;592.53;;;319.30;;
57231;SDS011;43488;46.934;8.276;2022-09-17T00:06:30;580.38;;;396.05;;
57231;SDS011;43488;46.934;8.276;2022-09-17T00:09:00;598.75;;;327.60;;
57231;SDS011;43488;46.934;8.276;2022-09-17T00:11:29;597.63;;;316.10;;
57231;SDS011;43488;46.934;8.276;2022-09-17T00:13:59;589.15;;;391.83;;
57231;SDS011;43488;46.934;8.276;2022-09-17T00:16:29;592.88;;;314.52;;
57231;SDS011;43488;46.934;8.276;2022-09-17T00:19:00;590.38;;;391.10;;
57231;SDS011;43488;46.934;8.276;2022-09-17T00:21:29;591.10;;;304.00;;
57231;SDS011;43488;46.934;8.276;2022-09-17T00:23:57;589.53;;;385.63;;
57231;SDS011;43488;46.934;8.276;2022-09-17T00:26:27;599.28;;;403.23;;
57231;SDS011;43488;46.934;8.276;2022-09-17T00:28:57;597.45;;;319.27;;
57231;SDS011;43488;46.934;8.276;2022-09-17T00:31:26;595.85;;;393.52;;
57231;SDS011;43488;46.934;8.276;2022-09-17T00:33:55;588.60;;;383.23;;
57231;SDS011;43488;46.934;8.276;2022-09-17T00:36:24;599.70;;;311.90;;
57231;SDS011;43488;46.934;8.276;2022-09-17T00:38:53;600.58;;;316.30;;
57231;SDS011;43488;46.934;8.276;2022-09-17T00:41:23;603.30;;;317.17;;
57231;SDS011;43488;46.934;8.276;2022-09-17T00:43:58;590.92;;;394.63;;
57231;SDS011;43488;46.934;8.276;2022-09-17T00:46:30;592.33;;;311.13;;
57231;SDS011;43488;46.934;8.276;2022-09-17T00:49:19;589.97;;;389.58;;
57231;SDS011;43488;46.934;8.276;2022-09-17T00:52:03;591.58;;;387.80;;
57231;SDS011;43488;46.934;8.276;2022-09-17T00:54:36;594.47;;;389.63;;
57231;SDS011;43488;46.934;8.276;2022-09-17T00:57:06;597.95;;;399.23;;
57231;SDS011;43488;46.934;8.276;2022-09-17T00:59:34;601.78;;;325.65;;
57231;SDS011;43488;46.934;8.276;2022-09-17T01:02:02;599.67;;;394.77;;
57231;SDS011;43488;46.934;8.276;2022-09-17T01:04:31;603.15;;;319.27;;
57231;SDS011;43488;46.934;8.276;2022-09-17T01:07:17;604.75;;;321.63;;
57231;SDS011;43488;46.934;8.276;2022-09-17T01:10:05;592.88;;;394.20;;
57231;SDS011;43488;46.934;8.276;2022-09-17T01:15:37;598.15;;;402.58;;
57231;SDS011;43488;46.934;8.276;2022-09-17T01:38:45;598.80;;;313.90;;
57231;SDS011;43488;46.934;8.276;2022-09-17T01:41:36;596.53;;;319.35;;
57231;SDS011;43488;46.934;8.276;2022-09-17T01:47:26;596.03;;;305.70;;
57231;SDS011;43488;46.934;8.276;2022-09-17T01:50:08;586.78;;;381.92;;
57231;SDS011;43488;46.934;8.276;2022-09-17T01:52:43;599.67;;;313.85;;
57231;SDS011;43488;46.934;8.276;2022-09-17T01:55:15;586.55;;;384.02;;
57231;SDS011;43488;46.934;8.276;2022-09-17T01:57:52;593.92;;;391.17;;
57231;SDS011;43488;46.934;8.276;2022-09-17T02:00:40;597.97;;;313.48;;
57231;SDS011;43488;46.934;8.276;2022-09-17T02:03:16;589.35;;;389.08;;
57231;SDS011;43488;46.934;8.276;2022-09-17T02:05:54;597.83;;;309.80;;
57231;SDS011;43488;46.934;8.276;2022-09-17T02:08:34;592.92;;;389.15;;
57231;SDS011;43488;46.934;8.276;2022-09-17T02:11:10;588.88;;;301.73;;
57231;SDS011;43488;46.934;8.276;2022-09-17T02:13:44;590.20;;;384.58;;
57231;SDS011;43488;46.934;8.276;2022-09-17T02:16:28;599.65;;;312.48;;
57231;SDS011;43488;46.934;8.276;2022-09-17T02:21:49;591.90;;;305.73;;
57231;SDS011;43488;46.934;8.276;2022-09-17T02:24:39;592.50;;;382.25;;
57231;SDS011;43488;46.934;8.276;2022-09-17T02:30:33;601.10;;;399.65;;
57231;SDS011;43488;46.934;8.276;2022-09-17T02:33:01;594.60;;;389.88;;
57231;SDS011;43488;46.934;8.276;2022-09-17T02:35:33;587.60;;;377.88;;
57231;SDS011;43488;46.934;8.276;2022-09-17T02:38:01;596.70;;;396.50;;
57231;SDS011;43488;46.934;8.276;2022-09-17T02:40:33;594.05;;;306.35;;
57231;SDS011;43488;46.934;8.276;2022-09-17T02:43:12;605.72;;;326.73;;
57231;SDS011;43488;46.934;8.276;2022-09-17T02:51:32;595.00;;;388.80;;
57231;SDS011;43488;46.934;8.276;2022-09-17T02:57:52;595.80;;;310.17;;
57231;SDS011;43488;46.934;8.276;2022-09-17T03:00:29;594.58;;;390.65;;
57231;SDS011;43488;46.934;8.276;2022-09-17T03:02:58;593.30;;;385.85;;
57231;SDS011;43488;46.934;8.276;2022-09-17T03:05:30;594.45;;;307.00;;
57231;SDS011;43488;46.934;8.276;2022-09-17T03:07:59;603.13;;;316.83;;
57231;SDS011;43488;46.934;8.276;2022-09-17T03:10:27;607.60;;;320.33;;
57231;SDS011;43488;46.934;8.276;2022-09-17T03:12:56;602.03;;;314.45;;
57231;SDS011;43488;46.934;8.276;2022-09-17T03:15:24;596.60;;;388.98;;
57231;SDS011;43488;46.934;8.276;2022-09-17T03:17:54;591.47;;;307.08;;
57231;SDS011;43488;46.934;8.276;2022-09-17T03:20:22;595.75;;;391.65;;
57231;SDS011;43488;46.934;8.276;2022-09-17T03:22:50;603.78;;;322.88;;
57231;SDS011;43488;46.934;8.276;2022-09-17T03:25:19;592.80;;;385.75;;
57231;SDS011;43488;46.934;8.276;2022-09-17T03:27:50;597.60;;;308.55;;
57231;SDS011;43488;46.934;8.276;2022-09-17T03:30:18;593.05;;;307.88;;
57231;SDS011;43488;46.934;8.276;2022-09-17T03:32:45;597.35;;;393.13;;
57231;SDS011;43488;46.934;8.276;2022-09-17T03:35:13;604.40;;;322.35;;
57231;SDS011;43488;46.934;8.276;2022-09-17T03:37:41;591.25;;;381.80;;
57231;SDS011;43488;46.934;8.276;2022-09-17T03:40:08;589.83;;;383.40;;
57231;SDS011;43488;46.934;8.276;2022-09-17T03:42:36;597.58;;;392.52;;
57231;SDS011;43488;46.934;8.276;2022-09-17T03:45:03;590.97;;;306.00;;
57231;SDS011;43488;46.934;8.276;2022-09-17T03:47:31;598.35;;;310.83;;
57231;SDS011;43488;46.934;8.276;2022-09-17T03:49:58;601.83;;;321.52;;
57231;SDS011;43488;46.934;8.276;2022-09-17T03:52:26;602.05;;;311.75;;
57231;SDS011;43488;46.934;8.276;2022-09-17T03:54:53;594.83;;;390.17;;
57231;SDS011;43488;46.934;8.276;2022-09-17T03:57:21;597.33;;;390.45;;
57231;SDS011;43488;46.934;8.276;2022-09-17T03:59:48;596.45;;;314.60;;
57231;SDS011;43488;46.934;8.276;2022-09-17T04:02:15;594.97;;;385.20;;
57231;SDS011;43488;46.934;8.276;2022-09-17T04:04:42;600.25;;;324.05;;
57231;SDS011;43488;46.934;8.276;2022-09-17T04:07:10;600.72;;;322.92;;
57231;SDS011;43488;46.934;8.276;2022-09-17T04:09:37;594.00;;;311.67;;
57231;SDS011;43488;46.934;8.276;2022-09-17T04:12:04;601.90;;;312.02;;
57231;SDS011;43488;46.934;8.276;2022-09-17T04:14:31;593.83;;;386.90;;
57231;SDS011;43488;46.934;8.276;2022-09-17T04:16:59;599.65;;;306.40;;
57231;SDS011;43488;46.934;8.276;2022-09-17T04:19:26;603.35;;;326.95;;
57231;SDS011;43488;46.934;8.276;2022-09-17T04:21:53;600.00;;;387.38;;
57231;SDS011;43488;46.934;8.276;2022-09-17T04:24:23;598.17;;;394.83;;
57231;SDS011;43488;46.934;8.276;2022-09-17T04:26:51;605.38;;;317.02;;
57231;SDS011;43488;46.934;8.276;2022-09-17T04:29:18;601.65;;;307.33;;
57231;SDS011;43488;46.934;8.276;2022-09-17T04:31:45;598.75;;;312.00;;
57231;SDS011;43488;46.934;8.276;2022-09-17T04:34:12;601.25;;;316.67;;
57231;SDS011;43488;46.934;8.276;2022-09-17T04:36:40;603.85;;;383.63;;
57231;SDS011;43488;46.934;8.276;2022-09-17T04:39:07;608.08;;;318.85;;
57231;SDS011;43488;46.934;8.276;2022-09-17T04:41:34;606.58;;;391.40;;
57231;SDS011;43488;46.934;8.276;2022-09-17T04:44:02;602.45;;;310.25;;
57231;SDS011;43488;46.934;8.276;2022-09-17T04:46:29;602.28;;;388.27;;
57231;SDS011;43488;46.934;8.276;2022-09-17T04:48:56;601.05;;;389.85;;
57231;SDS011;43488;46.934;8.276;2022-09-17T04:51:24;605.88;;;310.63;;
57231;SDS011;43488;46.934;8.276;2022-09-17T04:53:54;595.28;;;382.58;;
57231;SDS011;43488;46.934;8.276;2022-09-17T04:56:21;607.47;;;320.95;;
57231;SDS011;43488;46.934;8.276;2022-09-17T04:58:48;603.78;;;315.08;;
57231;SDS011;43488;46.934;8.276;2022-09-17T05:01:16;597.30;;;303.80;;
57231;SDS011;43488;46.934;8.276;2022-09-17T05:03:44;601.00;;;315.92;;
57231;SDS011;43488;46.934;8.276;2022-09-17T05:06:12;598.40;;;381.25;;
57231;SDS011;43488;46.934;8.276;2022-09-17T05:08:39;606.00;;;325.95;;
57231;SDS011;43488;46.934;8.276;2022-09-17T05:11:06;603.20;;;304.95;;
57231;SDS011;43488;46.934;8.276;2022-09-17T05:13:34;605.60;;;312.33;;
57231;SDS011;43488;46.934;8.276;2022-09-17T05:16:01;604.35;;;311.98;;
57231;SDS011;43488;46.934;8.276;2022-09-17T05:18:29;602.58;;;314.23;;
57231;SDS011;43488;46.934;8.276;2022-09-17T05:20:56;607.17;;;312.33;;
57231;SDS011;43488;46.934;8.276;2022-09-17T05:23:24;597.35;;;392.88;;
57231;SDS011;43488;46.934;8.276;2022-09-17T05:25:51;607.80;;;317.75;;
57231;SDS011;43488;46.934;8.276;2022-09-17T05:28:18;600.03;;;384.33;;
57231;SDS011;43488;46.934;8.276;2022-09-17T05:30:46;603.63;;;385.17;;
57231;SDS011;43488;46.934;8.276;2022-09-17T05:33:14;603.63;;;402.80;;
57231;SDS011;43488;46.934;8.276;2022-09-17T05:35:42;607.47;;;395.23;;
57231;SDS011;43488;46.934;8.276;2022-09-17T05:38:10;603.63;;;315.55;;
57231;SDS011;43488;46.934;8.276;2022-09-17T05:40:38;605.92;;;315.23;;
57231;SDS011;43488;46.934;8.276;2022-09-17T05:43:05;612.53;;;315.40;;
57231;SDS011;43488;46.934;8.276;2022-09-17T05:45:33;607.20;;;313.95;;
57231;SDS011;43488;46.934;8.276;2022-09-17T05:48:03;612.13;;;322.75;;
57231;SDS011;43488;46.934;8.276;2022-09-17T05:50:35;612.20;;;315.10;;
57231;SDS011;43488;46.934;8.276;2022-09-17T05:53:20;611.20;;;314.23;;
57231;SDS011;43488;46.934;8.276;2022-09-17T05:55:48;614.55;;;317.52;;
57231;SDS011;43488;46.934;8.276;2022-09-17T05:58:16;613.10;;;408.75;;
57231;SDS011;43488;46.934;8.276;2022-09-17T06:00:45;604.35;;;303.83;;
57231;SDS011;43488;46.934;8.276;2022-09-17T06:03:14;615.35;;;397.88;;
57231;SDS011;43488;46.934;8.276;2022-09-17T06:05:51;609.80;;;317.10;;
57231;SDS011;43488;46.934;8.276;2022-09-17T06:08:21;613.78;;;405.67;;
57231;SDS011;43488;46.934;8.276;2022-09-17T06:10:49;608.92;;;401.55;;
57231;SDS011;43488;46.934;8.276;2022-09-17T06:13:17;618.63;;;328.60;;
57231;SDS011;43488;46.934;8.276;2022-09-17T06:15:49;614.88;;;411.70;;
57231;SDS011;43488;46.934;8.276;2022-09-17T06:18:19;614.00;;;395.30;;
57231;SDS011;43488;46.934;8.276;2022-09-17T06:20:56;606.28;;;397.20;;
57231;SDS011;43488;46.934;8.276;2022-09-17T06:23:27;611.30;;;313.42;;
57231;SDS011;43488;46.934;8.276;2022-09-17T06:26:01;611.90;;;319.75;;
57231;SDS011;43488;46.934;8.276;2022-09-17T06:28:31;613.88;;;317.63;;
57231;SDS011;43488;46.934;8.276;2022-09-17T06:31:00;606.88;;;382.80;;
57231;SDS011;43488;46.934;8.276;2022-09-17T06:33:31;612.43;;;319.77;;
57231;SDS011;43488;46.934;8.276;2022-09-17T06:36:00;610.95;;;387.27;;
57231;SDS011;43488;46.934;8.276;2022-09-17T06:38:31;613.40;;;308.60;;
57231;SDS011;43488;46.934;8.276;2022-09-17T06:41:00;608.58;;;309.35;;
57231;SDS011;43488;46.934;8.276;2022-09-17T06:43:29;611.50;;;316.48;;
57231;SDS011;43488;46.934;8.276;2022-09-17T06:45:57;613.22;;;407.35;;
57231;SDS011;43488;46.934;8.276;2022-09-17T06:48:32;618.25;;;324.30;;
57231;SDS011;43488;46.934;8.276;2022-09-17T06:51:01;614.50;;;394.40;;
57231;SDS011;43488;46.934;8.276;2022-09-17T06:53:31;624.97;;;400.07;;
57231;SDS011;43488;46.934;8.276;2022-09-17T06:55:59;617.80;;;316.60;;
57231;SDS011;43488;46.934;8.276;2022-09-17T06:58:27;612.83;;;391.42;;
57231;SDS011;43488;46.934;8.276;2022-09-17T07:00:59;610.50;;;311.90;;
57231;SDS011;43488;46.934;8.276;2022-09-17T07:03:28;617.80;;;402.00;;
57231;SDS011;43488;46.934;8.276;2022-09-17T07:05:56;614.78;;;393.20;;
57231;SDS011;43488;46.934;8.276;2022-09-17T07:08:24;622.22;;;330.65;;
57231;SDS011;43488;46.934;8.276;2022-09-17T07:10:55;620.20;;;326.30;;
57231;SDS011;43488;46.934;8.276;2022-09-17T07:13:24;620.60;;;315.65;;
57231;SDS011;43488;46.934;8.276;2022-09-17T07:15:55;621.00;;;399.90;;
57231;SDS011;43488;46.934;8.276;2022-09-17T07:18:26;619.33;;;398.58;;
57231;SDS011;43488;46.934;8.276;2022-09-17T07:20:58;619.60;;;324.20;;
57231;SDS011;43488;46.934;8.276;2022-09-17T07:23:32;621.58;;;404.25;;
57231;SDS011;43488;46.934;8.276;2022-09-17T07:26:07;619.58;;;398.98;;
57231;SDS011;43488;46.934;8.276;2022-09-17T07:28:43;622.93;;;320.03;;
57231;SDS011;43488;46.934;8.276;2022-09-17T07:31:11;617.47;;;391.25;;
57231;SDS011;43488;46.934;8.276;2022-09-17T07:33:39;623.85;;;324.95;;
57231;SDS011;43488;46.934;8.276;2022-09-17T07:36:09;621.95;;;402.48;;
57231;SDS011;43488;46.934;8.276;2022-09-17T07:38:39;622.47;;;327.95;;
57231;SDS011;43488;46.934;8.276;2022-09-17T07:41:08;618.50;;;320.48;;
57231;SDS011;43488;46.934;8.276;2022-09-17T07:43:41;630.72;;;356.02;;
57231;SDS011;43488;46.934;8.276;2022-09-17T07:46:13;625.20;;;334.60;;
57231;SDS011;43488;46.934;8.276;2022-09-17T07:48:44;625.83;;;413.02;;
57231;SDS011;43488;46.934;8.276;2022-09-17T07:51:19;630.85;;;333.60;;
57231;SDS011;43488;46.934;8.276;2022-09-17T07:53:51;619.15;;;325.35;;
57231;SDS011;43488;46.934;8.276;2022-09-17T07:56:21;618.97;;;319.88;;
57231;SDS011;43488;46.934;8.276;2022-09-17T07:58:50;623.65;;;407.13;;
57231;SDS011;43488;46.934;8.276;2022-09-17T08:01:18;623.38;;;405.95;;
57231;SDS011;43488;46.934;8.276;2022-09-17T08:03:50;626.05;;;402.83;;
57231;SDS011;43488;46.934;8.276;2022-09-17T08:06:21;625.45;;;325.92;;
57231;SDS011;43488;46.934;8.276;2022-09-17T08:08:51;618.22;;;403.08;;
57231;SDS011;43488;46.934;8.276;2022-09-17T08:11:20;616.20;;;316.40;;
57231;SDS011;43488;46.934;8.276;2022-09-17T08:13:51;614.63;;;393.35;;
57231;SDS011;43488;46.934;8.276;2022-09-17T08:16:20;621.88;;;329.60;;
57231;SDS011;43488;46.934;8.276;2022-09-17T08:18:53;622.28;;;322.92;;
57231;SDS011;43488;46.934;8.276;2022-09-17T08:21:22;624.85;;;323.48;;
57231;SDS011;43488;46.934;8.276;2022-09-17T08:23:50;616.25;;;322.33;;
57231;SDS011;43488;46.934;8.276;2022-09-17T08:26:18;618.28;;;400.50;;
57231;SDS011;43488;46.934;8.276;2022-09-17T08:28:49;621.20;;;326.30;;
57231;SDS011;43488;46.934;8.276;2022-09-17T08:31:21;619.58;;;396.30;;
57231;SDS011;43488;46.934;8.276;2022-09-17T08:33:52;618.40;;;324.47;;
57231;SDS011;43488;46.934;8.276;2022-09-17T08:36:20;619.78;;;324.80;;
57231;SDS011;43488;46.934;8.276;2022-09-17T08:38:52;627.90;;;411.75;;
57231;SDS011;43488;46.934;8.276;2022-09-17T08:44:32;617.80;;;402.63;;
57231;SDS011;43488;46.934;8.276;2022-09-17T08:47:12;619.75;;;400.83;;
57231;SDS011;43488;46.934;8.276;2022-09-17T08:50:04;621.42;;;405.45;;
57231;SDS011;43488;46.934;8.276;2022-09-17T09:07:22;613.40;;;394.17;;
57231;SDS011;43488;46.934;8.276;2022-09-17T09:12:33;618.67;;;402.30;;
57231;SDS011;43488;46.934;8.276;2022-09-17T09:15:03;617.63;;;316.67;;
57231;SDS011;43488;46.934;8.276;2022-09-17T09:17:56;617.45;;;318.40;;
57231;SDS011;43488;46.934;8.276;2022-09-17T09:20:51;620.85;;;400.33;;
57231;SDS011;43488;46.934;8.276;2022-09-17T09:23:29;620.15;;;329.35;;
57231;SDS011;43488;46.934;8.276;2022-09-17T09:26:16;616.15;;;315.52;;
57231;SDS011;43488;46.934;8.276;2022-09-17T09:29:04;616.55;;;313.80;;
57231;SDS011;43488;46.934;8.276;2022-09-17T09:32:23;617.85;;;321.35;;
57231;SDS011;43488;46.934;8.276;2022-09-17T09:35:23;626.30;;;329.40;;
57231;SDS011;43488;46.934;8.276;2022-09-17T09:40:35;615.22;;;317.65;;
57231;SDS011;43488;46.934;8.276;2022-09-17T09:43:16;617.67;;;393.90;;
57231;SDS011;43488;46.934;8.276;2022-09-17T09:46:04;625.53;;;410.23;;
57231;SDS011;43488;46.934;8.276;2022-09-17T09:54:51;615.97;;;318.88;;
57231;SDS011;43488;46.934;8.276;2022-09-17T09:57:48;619.72;;;407.02;;
57231;SDS011;43488;46.934;8.276;2022-09-17T10:00:29;618.75;;;395.23;;
57231;SDS011;43488;46.934;8.276;2022-09-17T10:05:39;620.47;;;326.77;;
57231;SDS011;43488;46.934;8.276;2022-09-17T10:08:17;616.45;;;323.75;;
57231;SDS011;43488;46.934;8.276;2022-09-17T10:13:23;623.15;;;324.95;;
57231;SDS011;43488;46.934;8.276;2022-09-17T10:15:52;625.80;;;325.52;;
57231;SDS011;43488;46.934;8.276;2022-09-17T10:18:23;616.13;;;396.48;;
57231;SDS011;43488;46.934;8.276;2022-09-17T10:20:58;622.30;;;323.60;;
57231;SDS011;43488;46.934;8.276;2022-09-17T10:23:27;629.65;;;335.10;;
57231;SDS011;43488;46.934;8.276;2022-09-17T10:25:59;619.72;;;323.50;;
57231;SDS011;43488;46.934;8.276;2022-09-17T10:28:43;622.50;;;332.27;;
57231;SDS011;43488;46.934;8.276;2022-09-17T10:34:32;624.13;;;324.73;;
57231;SDS011;43488;46.934;8.276;2022-09-17T10:36:59;622.90;;;398.42;;
57231;SDS011;43488;46.934;8.276;2022-09-17T10:39:36;621.95;;;328.50;;
57231;SDS011;43488;46.934;8.276;2022-09-17T10:42:12;621.80;;;322.88;;
57231;SDS011;43488;46.934;8.276;2022-09-17T10:44:50;620.33;;;324.85;;
57231;SDS011;43488;46.934;8.276;2022-09-17T10:47:30;625.58;;;324.13;;
57231;SDS011;43488;46.934;8.276;2022-09-17T10:50:13;619.63;;;403.75;;
57231;SDS011;43488;46.934;8.276;2022-09-17T10:52:51;629.28;;;331.27;;
57231;SDS011;43488;46.934;8.276;2022-09-17T10:55:32;631.53;;;333.33;;
57231;SDS011;43488;46.934;8.276;2022-09-17T11:01:09;627.22;;;415.48;;
57231;SDS011;43488;46.934;8.276;2022-09-17T11:07:04;632.97;;;420.90;;
57231;SDS011;43488;46.934;8.276;2022-09-17T11:27:29;629.95;;;333.80;;
57231;SDS011;43488;46.934;8.276;2022-09-17T11:30:16;626.53;;;333.77;;
57231;SDS011;43488;46.934;8.276;2022-09-17T11:32:50;630.33;;;336.20;;
57231;SDS011;43488;46.934;8.276;2022-09-17T11:41:01;637.55;;;426.23;;
57231;SDS011;43488;46.934;8.276;2022-09-17T11:43:32;634.77;;;338.30;;
57231;SDS011;43488;46.934;8.276;2022-09-17T11:46:36;636.00;;;339.85;;
57231;SDS011;43488;46.934;8.276;2022-09-17T11:55:19;633.55;;;419.48;;
57231;SDS011;43488;46.934;8.276;2022-09-17T11:58:03;626.38;;;334.08;;
57231;SDS011;43488;46.934;8.276;2022-09-17T12:00:45;633.00;;;334.15;;
57231;SDS011;43488;46.934;8.276;2022-09-17T12:03:25;633.22;;;340.30;;
57231;SDS011;43488;46.934;8.276;2022-09-17T12:06:02;634.92;;;418.85;;
57231;SDS011;43488;46.934;8.276;2022-09-17T12:08:41;632.75;;;424.10;;
57231;SDS011;43488;46.934;8.276;2022-09-17T12:14:38;629.22;;;340.00;;
57231;SDS011;43488;46.934;8.276;2022-09-17T12:17:25;635.92;;;409.58;;
57231;SDS011;43488;46.934;8.276;2022-09-17T12:20:07;638.35;;;438.95;;
57231;SDS011;43488;46.934;8.276;2022-09-17T12:23:09;639.63;;;418.75;;
57231;SDS011;43488;46.934;8.276;2022-09-17T12:25:46;646.53;;;354.10;;
57231;SDS011;43488;46.934;8.276;2022-09-17T12:28:23;640.40;;;353.13;;
57231;SDS011;43488;46.934;8.276;2022-09-17T12:31:09;642.35;;;431.52;;
57231;SDS011;43488;46.934;8.276;2022-09-17T12:34:16;641.08;;;412.67;;
57231;SDS011;43488;46.934;8.276;2022-09-17T12:37:17;640.15;;;354.63;;
57231;SDS011;43488;46.934;8.276;2022-09-17T12:40:24;642.08;;;423.02;;
57231;SDS011;43488;46.934;8.276;2022-09-17T12:52:52;639.58;;;420.73;;
57231;SDS011;43488;46.934;8.276;2022-09-17T12:58:49;637.88;;;409.05;;
57231;SDS011;43488;46.934;8.276;2022-09-17T13:13:59;636.83;;;342.92;;
57231;SDS011;43488;46.934;8.276;2022-09-17T13:17:42;635.50;;;411.60;;
57231;SDS011;43488;46.934;8.276;2022-09-17T13:20:02;635.15;;;341.17;;
57231;SDS011;43488;46.934;8.276;2022-09-17T13:22:44;629.55;;;336.42;;
57231;SDS011;43488;46.934;8.276;2022-09-17T13:25:18;633.13;;;411.92;;
57231;SDS011;43488;46.934;8.276;2022-09-17T13:27:46;634.30;;;405.23;;
57231;SDS011;43488;46.934;8.276;2022-09-17T13:30:17;630.55;;;343.83;;
57231;SDS011;43488;46.934;8.276;2022-09-17T13:32:51;630.80;;;335.80;;
57231;SDS011;43488;46.934;8.276;2022-09-17T13:37:56;633.25;;;404.15;;
57231;SDS011;43488;46.934;8.276;2022-09-17T13:40:30;633.92;;;410.30;;
57231;SDS011;43488;46.934;8.276;2022-09-17T13:48:27;635.67;;;413.65;;
57231;SDS011;43488;46.934;8.276;2022-09-17T13:51:41;635.30;;;414.25;;
57231;SDS011;43488;46.934;8.276;2022-09-17T13:53:58;640.38;;;345.85;;
57231;SDS011;43488;46.934;8.276;2022-09-17T13:56:37;637.22;;;415.75;;
57231;SDS011;43488;46.934;8.276;2022-09-17T13:59:10;641.05;;;417.60;;
57231;SDS011;43488;46.934;8.276;2022-09-17T14:01:54;641.85;;;353.27;;
57231;SDS011;43488;46.934;8.276;2022-09-17T14:09:50;642.75;;;425.13;;
57231;SDS011;43488;46.934;8.276;2022-09-17T14:13:17;638.85;;;416.08;;
57231;SDS011;43488;46.934;8.276;2022-09-17T14:15:34;638.33;;;409.65;;
57231;SDS011;43488;46.934;8.276;2022-09-17T14:18:31;641.28;;;413.95;;
57231;SDS011;43488;46.934;8.276;2022-09-17T14:21:04;640.92;;;350.13;;
57231;SDS011;43488;46.934;8.276;2022-09-17T14:23:41;634.75;;;415.10;;
57231;SDS011;43488;46.934;8.276;2022-09-17T14:26:24;632.25;;;338.38;;
57231;SDS011;43488;46.934;8.276;2022-09-17T14:35:25;633.95;;;411.55;;
57231;SDS011;43488;46.934;8.276;2022-09-17T14:43:57;629.30;;;334.67;;
57231;SDS011;43488;46.934;8.276;2022-09-17T14:46:41;633.22;;;412.33;;
57231;SDS011;43488;46.934;8.276;2022-09-17T14:49:29;636.42;;;411.00;;
57231;SDS011;43488;46.934;8.276;2022-09-17T14:52:00;636.92;;;417.23;;
57231;SDS011;43488;46.934;8.276;2022-09-17T14:54:43;639.78;;;421.77;;
57231;SDS011;43488;46.934;8.276;2022-09-17T14:57:23;634.08;;;345.67;;
57231;SDS011;43488;46.934;8.276;2022-09-17T14:59:55;640.72;;;347.65;;
57231;SDS011;43488;46.934;8.276;2022-09-17T15:02:39;638.45;;;415.38;;
57231;SDS011;43488;46.934;8.276;2022-09-17T15:05:14;635.97;;;346.73;;
57231;SDS011;43488;46.934;8.276;2022-09-17T15:10:37;637.53;;;415.92;;
57231;SDS011;43488;46.934;8.276;2022-09-17T15:13:19;639.95;;;345.65;;
57231;SDS011;43488;46.934;8.276;2022-09-17T15:18:56;633.70;;;349.48;;
57231;SDS011;43488;46.934;8.276;2022-09-17T15:21:38;636.50;;;347.40;;
57231;SDS011;43488;46.934;8.276;2022-09-17T15:26:50;641.40;;;427.88;;
57231;SDS011;43488;46.934;8.276;2022-09-17T15:29:22;642.03;;;431.83;;
57231;SDS011;43488;46.934;8.276;2022-09-17T15:31:54;638.13;;;418.30;;
57231;SDS011;43488;46.934;8.276;2022-09-17T15:34:22;636.85;;;419.52;;
57231;SDS011;43488;46.934;8.276;2022-09-17T15:39:46;640.08;;;359.38;;
57231;SDS011;43488;46.934;8.276;2022-09-17T15:42:23;642.78;;;428.13;;
57231;SDS011;43488;46.934;8.276;2022-09-17T15:45:08;638.85;;;425.83;;
57231;SDS011;43488;46.934;8.276;2022-09-17T15:47:53;641.63;;;358.40;;
57231;SDS011;43488;46.934;8.276;2022-09-17T15:50:27;639.33;;;358.02;;
57231;SDS011;43488;46.934;8.276;2022-09-17T15:53:19;637.45;;;351.73;;
57231;SDS011;43488;46.934;8.276;2022-09-17T16:11:20;636.60;;;354.48;;
57231;SDS011;43488;46.934;8.276;2022-09-17T16:13:49;630.83;;;350.00;;
57231;SDS011;43488;46.934;8.276;2022-09-17T16:16:19;626.15;;;340.17;;
57231;SDS011;43488;46.934;8.276;2022-09-17T16:18:50;636.25;;;421.48;;
57231;SDS011;43488;46.934;8.276;2022-09-17T16:21:17;635.50;;;425.38;;
57231;SDS011;43488;46.934;8.276;2022-09-17T16:23:46;629.70;;;342.05;;
57231;SDS011;43488;46.934;8.276;2022-09-17T16:26:15;629.80;;;345.42;;
57231;SDS011;43488;46.934;8.276;2022-09-17T16:28:48;626.47;;;412.55;;
57231;SDS011;43488;46.934;8.276;2022-09-17T16:31:19;623.78;;;412.10;;
57231;SDS011;43488;46.934;8.276;2022-09-17T16:33:47;623.75;;;407.58;;
57231;SDS011;43488;46.934;8.276;2022-09-17T16:36:16;626.55;;;411.02;;
57231;SDS011;43488;46.934;8.276;2022-09-17T16:38:44;617.30;;;329.17;;
57231;SDS011;43488;46.934;8.276;2022-09-17T16:41:12;622.60;;;407.85;;
57231;SDS011;43488;46.934;8.276;2022-09-17T16:43:39;620.65;;;338.33;;
57231;SDS011;43488;46.934;8.276;2022-09-17T16:46:08;627.58;;;345.60;;
57231;SDS011;43488;46.934;8.276;2022-09-17T16:48:37;625.15;;;409.70;;
57231;SDS011;43488;46.934;8.276;2022-09-17T16:51:12;624.33;;;341.58;;
57231;SDS011;43488;46.934;8.276;2022-09-17T16:53:40;617.83;;;412.45;;
57231;SDS011;43488;46.934;8.276;2022-09-17T16:56:09;616.53;;;416.70;;
57231;SDS011;43488;46.934;8.276;2022-09-17T16:58:38;620.90;;;329.70;;
57231;SDS011;43488;46.934;8.276;2022-09-17T17:01:09;624.30;;;338.90;;
57231;SDS011;43488;46.934;8.276;2022-09-17T17:03:39;611.88;;;399.98;;
57231;SDS011;43488;46.934;8.276;2022-09-17T17:06:14;619.83;;;415.65;;
57231;SDS011;43488;46.934;8.276;2022-09-17T17:08:46;614.40;;;326.15;;
57231;SDS011;43488;46.934;8.276;2022-09-17T17:11:14;616.33;;;333.30;;
57231;SDS011;43488;46.934;8.276;2022-09-17T17:13:41;623.53;;;331.75;;
57231;SDS011;43488;46.934;8.276;2022-09-17T17:16:10;623.13;;;339.75;;
57231;SDS011;43488;46.934;8.276;2022-09-17T17:18:42;616.00;;;328.00;;
57231;SDS011;43488;46.934;8.276;2022-09-17T17:21:10;620.80;;;330.47;;
57231;SDS011;43488;46.934;8.276;2022-09-17T17:23:39;618.60;;;410.13;;
57231;SDS011;43488;46.934;8.276;2022-09-17T17:26:09;616.70;;;333.75;;
57231;SDS011;43488;46.934;8.276;2022-09-17T17:28:37;619.17;;;415.85;;
57231;SDS011;43488;46.934;8.276;2022-09-17T17:31:05;619.33;;;421.63;;
57231;SDS011;43488;46.934;8.276;2022-09-17T17:33:32;617.03;;;323.08;;
57231;SDS011;43488;46.934;8.276;2022-09-17T17:36:02;616.13;;;412.30;;
57231;SDS011;43488;46.934;8.276;2022-09-17T17:38:31;615.40;;;408.70;;
57231;SDS011;43488;46.934;8.276;2022-09-17T17:41:02;619.40;;;331.30;;
57231;SDS011;43488;46.934;8.276;2022-09-17T17:43:33;613.25;;;400.45;;
57231;SDS011;43488;46.934;8.276;2022-09-17T17:46:09;613.70;;;326.17;;
57231;SDS011;43488;46.934;8.276;2022-09-17T17:48:38;618.90;;;323.25;;
57231;SDS011;43488;46.934;8.276;2022-09-17T17:51:07;611.00;;;400.23;;